createdAt,value
2018-06-15T00:00:00.702Z,17.36
2018-06-15T00:02:35.649Z,17.11
2018-06-15T00:05:07.893Z,17.10
2018-06-15T00:07:41.010Z,17.05
2018-06-15T00:10:14.159Z,16.94
2018-06-15T00:12:47.625Z,16.90
2018-06-15T00:15:20.846Z,16.99
2018-06-15T00:17:53.370Z,16.94
2018-06-15T00:20:28.044Z,16.86
2018-06-15T00:22:59.631Z,16.84
2018-06-15T00:25:31.978Z,16.83
2018-06-15T00:28:03.777Z,16.83
2018-06-15T00:30:34.303Z,16.78
2018-06-15T00:33:07.887Z,16.87
2018-06-15T00:35:41.104Z,16.87
2018-06-15T00:38:12.719Z,16.83
2018-06-15T00:40:47.309Z,16.80
2018-06-15T00:43:22.196Z,16.79
2018-06-15T00:45:55.133Z,16.74
2018-06-15T00:48:28.450Z,16.67
2018-06-15T00:51:02.953Z,16.64
2018-06-15T00:53:34.394Z,16.62
2018-06-15T00:56:09.397Z,16.41
2018-06-15T00:58:42.588Z,16.18
2018-06-15T01:01:15.551Z,16.17
2018-06-15T01:03:48.768Z,16.16
2018-06-15T01:06:20.123Z,16.12
2018-06-15T01:08:51.636Z,16.10
2018-06-15T01:11:24.599Z,16.00
2018-06-15T01:13:55.146Z,16.12
2018-06-15T01:16:27.905Z,16.12
2018-06-15T01:19:01.010Z,16.14
2018-06-15T01:21:35.341Z,16.10
2018-06-15T01:24:08.768Z,16.19
2018-06-15T01:26:43.330Z,16.17
2018-06-15T01:29:15.256Z,16.20
2018-06-15T01:31:45.241Z,16.21
2018-06-15T01:34:18.715Z,16.12
2018-06-15T01:36:51.776Z,16.05
2018-06-15T01:39:25.477Z,16.00
2018-06-15T01:41:58.780Z,16.01
2018-06-15T01:44:31.836Z,15.93
2018-06-15T01:47:03.432Z,16.00
2018-06-15T01:49:34.933Z,16.09
2018-06-15T01:52:07.500Z,15.96
2018-06-15T01:54:39.859Z,15.96
2018-06-15T01:57:09.879Z,15.93
2018-06-15T01:59:42.983Z,16.10
2018-06-15T02:02:16.129Z,16.13
2018-06-15T02:04:46.284Z,16.04
2018-06-15T02:07:18.474Z,16.11
2018-06-15T02:09:49.983Z,16.13
2018-06-15T02:12:24.237Z,16.13
2018-06-15T02:14:58.626Z,16.16
2018-06-15T02:17:30.729Z,16.17
2018-06-15T02:20:02.343Z,16.05
2018-06-15T02:22:37.510Z,16.21
2018-06-15T02:25:12.124Z,16.26
2018-06-15T02:27:43.635Z,16.26
2018-06-15T02:30:18.271Z,16.43
2018-06-15T02:32:52.818Z,16.58
2018-06-15T02:35:26.057Z,16.42
2018-06-15T02:38:00.570Z,16.46
2018-06-15T02:40:33.539Z,16.33
2018-06-15T02:43:07.180Z,16.36
2018-06-15T02:45:41.637Z,16.26
2018-06-15T02:48:13.617Z,16.24
2018-06-15T02:50:45.063Z,16.22
2018-06-15T02:53:18.623Z,16.18
2018-06-15T02:55:53.104Z,16.02
2018-06-15T02:58:23.221Z,15.91
2018-06-15T03:00:52.692Z,15.97
2018-06-15T03:03:22.031Z,15.94
2018-06-15T03:05:55.439Z,15.84
2018-06-15T03:08:28.199Z,15.95
2018-06-15T03:10:58.661Z,15.94
2018-06-15T03:13:33.160Z,15.83
2018-06-15T03:16:06.164Z,15.77
2018-06-15T03:18:39.435Z,15.97
2018-06-15T03:21:12.586Z,16.08
2018-06-15T03:23:44.162Z,16.00
2018-06-15T03:26:17.286Z,16.15
2018-06-15T03:28:52.055Z,16.05
2018-06-15T03:31:25.155Z,16.15
2018-06-15T03:33:58.621Z,16.18
2018-06-15T03:36:33.658Z,15.88
2018-06-15T03:39:07.352Z,16.12
2018-06-15T03:41:36.722Z,16.24
2018-06-15T03:44:10.026Z,16.23
2018-06-15T03:46:44.945Z,16.26
2018-06-15T03:49:17.120Z,16.20
2018-06-15T03:51:48.628Z,16.23
2018-06-15T03:54:21.871Z,16.16
2018-06-15T03:56:55.041Z,16.10
2018-06-15T03:59:26.948Z,16.19
2018-06-15T04:01:57.637Z,16.17
2018-06-15T04:04:32.334Z,16.20
2018-06-15T04:07:03.884Z,16.00
2018-06-15T04:09:38.382Z,15.94
2018-06-15T04:12:08.271Z,16.03
2018-06-15T04:14:40.016Z,15.84
2018-06-15T04:17:12.959Z,16.02
2018-06-15T04:19:46.234Z,16.00
2018-06-15T04:22:16.937Z,16.28
2018-06-15T04:24:49.021Z,16.34
2018-06-15T04:27:22.214Z,16.38
2018-06-15T04:29:55.498Z,16.54
2018-06-15T04:32:28.707Z,16.47
2018-06-15T04:35:01.963Z,16.41
2018-06-15T04:37:34.025Z,16.58
2018-06-15T04:40:08.634Z,16.71
2018-06-15T04:42:43.423Z,16.79
2018-06-15T04:45:16.892Z,16.71
2018-06-15T04:47:50.014Z,16.69
2018-06-15T04:50:20.064Z,17.02
2018-06-15T04:52:51.503Z,17.01
2018-06-15T04:55:24.524Z,17.25
2018-06-15T04:57:58.150Z,17.46
2018-06-15T05:00:31.422Z,17.73
2018-06-15T05:03:06.034Z,17.54
2018-06-15T05:05:36.140Z,17.35
2018-06-15T05:08:09.331Z,17.62
2018-06-15T05:10:41.464Z,17.75
2018-06-15T05:13:15.831Z,17.82
2018-06-15T05:15:49.283Z,17.64
2018-06-15T05:18:20.989Z,17.52
2018-06-15T05:20:54.191Z,17.46
2018-06-15T05:23:24.196Z,17.37
2018-06-15T05:25:55.929Z,17.45
2018-06-15T05:28:28.839Z,17.59
2018-06-15T05:31:02.068Z,17.53
2018-06-15T05:33:33.787Z,17.53
2018-06-15T05:36:08.743Z,17.77
2018-06-15T05:38:41.816Z,18.23
2018-06-15T05:41:14.537Z,18.76
2018-06-15T05:43:44.514Z,19.29
2018-06-15T05:46:15.704Z,20.04
2018-06-15T05:48:48.824Z,20.07
2018-06-15T05:51:21.739Z,20.01
2018-06-15T05:53:56.336Z,19.56
2018-06-15T05:56:27.741Z,19.20
2018-06-15T05:58:59.233Z,18.80
2018-06-15T06:01:34.163Z,18.77
2018-06-15T06:04:07.306Z,18.95
2018-06-15T06:06:40.373Z,18.64
2018-06-15T06:09:11.577Z,18.44
2018-06-15T06:11:44.798Z,18.62
2018-06-15T06:14:16.832Z,18.54
2018-06-15T06:16:46.897Z,18.95
2018-06-15T06:19:18.401Z,18.86
2018-06-15T06:21:52.125Z,18.84
2018-06-15T06:24:25.059Z,18.99
2018-06-15T06:26:55.632Z,18.97
2018-06-15T06:29:28.726Z,19.29
2018-06-15T06:32:00.241Z,19.44
2018-06-15T06:34:33.820Z,19.60
2018-06-15T06:37:08.854Z,19.64
2018-06-15T06:39:42.175Z,19.27
2018-06-15T06:42:12.136Z,19.59
2018-06-15T06:44:44.968Z,19.52
2018-06-15T06:47:16.585Z,19.24
2018-06-15T06:49:50.964Z,19.17
2018-06-15T06:52:23.113Z,18.72
2018-06-15T06:54:56.190Z,19.23
2018-06-15T06:57:29.479Z,19.74
2018-06-15T07:00:02.535Z,19.90
2018-06-15T07:02:37.100Z,19.57
2018-06-15T07:05:08.618Z,20.20
2018-06-15T07:07:41.760Z,19.95
2018-06-15T07:10:14.523Z,19.44
2018-06-15T07:12:46.620Z,19.43
2018-06-15T07:15:18.118Z,19.70
2018-06-15T07:17:51.632Z,19.05
2018-06-15T07:20:21.513Z,18.91
2018-06-15T07:22:53.444Z,19.62
2018-06-15T07:25:23.354Z,19.47
2018-06-15T07:27:57.840Z,19.51
2018-06-15T07:30:40.256Z,19.97
2018-06-15T07:33:11.648Z,20.08
2018-06-15T07:35:44.828Z,20.93
2018-06-15T07:38:18.192Z,22.33
2018-06-15T07:40:51.276Z,23.18
2018-06-15T07:43:25.669Z,22.29
2018-06-15T07:46:00.155Z,23.63
2018-06-15T07:48:31.650Z,23.69
2018-06-15T07:51:03.559Z,23.39
2018-06-15T07:53:36.589Z,23.93
2018-06-15T07:56:08.077Z,22.73
2018-06-15T07:58:41.150Z,22.41
2018-06-15T08:01:16.060Z,21.24
2018-06-15T08:04:05.828Z,21.31
2018-06-15T08:06:38.749Z,20.52
2018-06-15T08:09:12.961Z,21.49
2018-06-15T08:11:46.059Z,21.11
2018-06-15T08:14:17.471Z,21.55
2018-06-15T08:16:51.841Z,21.55
2018-06-15T08:19:24.845Z,20.85
2018-06-15T08:21:54.781Z,20.38
2018-06-15T08:24:26.742Z,20.45
2018-06-15T08:27:06.995Z,20.85
2018-06-15T08:29:38.441Z,20.67
2018-06-15T08:32:08.468Z,20.75
2018-06-15T08:34:41.537Z,20.29
2018-06-15T08:37:14.669Z,20.97
2018-06-15T08:39:46.201Z,21.24
2018-06-15T08:42:19.185Z,22.39
2018-06-15T08:44:53.765Z,22.94
2018-06-15T08:47:24.578Z,24.64
2018-06-15T08:49:58.832Z,24.52
2018-06-15T08:52:32.462Z,24.11
2018-06-15T08:55:04.045Z,24.49
2018-06-15T08:57:33.943Z,23.78
2018-06-15T09:00:06.761Z,23.52
2018-06-15T09:02:39.685Z,23.16
2018-06-15T09:05:13.184Z,24.11
2018-06-15T09:07:45.276Z,23.95
2018-06-15T09:10:16.693Z,24.35
2018-06-15T09:12:49.649Z,24.74
2018-06-15T09:15:22.651Z,25.07
2018-06-15T09:17:54.023Z,25.15
2018-06-15T09:20:24.420Z,24.11
2018-06-15T09:22:59.252Z,23.73
2018-06-15T09:25:32.224Z,24.16
2018-06-15T09:28:03.713Z,24.46
2018-06-15T09:30:35.076Z,24.17
2018-06-15T09:33:07.962Z,24.70
2018-06-15T09:35:42.326Z,24.05
2018-06-15T09:38:16.587Z,25.17
2018-06-15T09:40:48.497Z,24.50
2018-06-15T09:43:21.638Z,25.70
2018-06-15T09:45:53.559Z,26.42
2018-06-15T09:48:23.510Z,25.54
2018-06-15T09:50:56.532Z,25.39
2018-06-15T09:53:28.115Z,26.50
2018-06-15T09:56:00.154Z,25.82
2018-06-15T09:58:31.677Z,25.86
2018-06-15T10:01:15.030Z,25.78
2018-06-15T10:03:48.193Z,26.17
2018-06-15T10:06:18.882Z,25.98
2018-06-15T10:08:50.743Z,27.12
2018-06-15T10:11:21.261Z,26.91
2018-06-15T10:13:52.604Z,26.94
2018-06-15T10:16:25.998Z,27.01
2018-06-15T10:18:58.043Z,26.38
2018-06-15T10:21:30.814Z,25.50
2018-06-15T10:24:00.817Z,25.76
2018-06-15T10:26:33.728Z,26.41
2018-06-15T10:29:08.268Z,26.89
2018-06-15T10:31:39.353Z,26.46
2018-06-15T10:34:10.743Z,26.16
2018-06-15T10:36:42.507Z,26.74
2018-06-15T10:39:16.590Z,26.52
2018-06-15T10:41:49.403Z,27.38
2018-06-15T10:44:22.570Z,25.90
2018-06-15T10:46:56.910Z,27.38
2018-06-15T10:49:26.837Z,26.66
2018-06-15T10:51:58.816Z,27.09
2018-06-15T10:54:32.247Z,26.20
2018-06-15T10:57:04.680Z,26.85
2018-06-15T10:59:37.595Z,26.56
2018-06-15T11:02:10.819Z,27.36
2018-06-15T11:04:40.631Z,27.17
2018-06-15T11:07:12.169Z,25.99
2018-06-15T11:09:43.572Z,26.55
2018-06-15T11:12:14.958Z,27.12
2018-06-15T11:14:46.533Z,26.88
2018-06-15T11:17:19.738Z,26.85
2018-06-15T11:19:52.879Z,26.23
2018-06-15T11:22:25.701Z,26.82
2018-06-15T11:24:57.086Z,26.75
2018-06-15T11:27:30.226Z,26.83
2018-06-15T11:30:03.942Z,26.33
2018-06-15T11:32:36.789Z,27.41
2018-06-15T11:35:08.533Z,27.68
2018-06-15T11:37:39.951Z,26.33
2018-06-15T11:40:12.409Z,25.97
2018-06-15T11:42:43.852Z,25.90
2018-06-15T11:45:18.073Z,25.94
2018-06-15T11:47:49.993Z,26.91
2018-06-15T11:50:25.082Z,27.80
2018-06-15T11:52:56.934Z,27.67
2018-06-15T11:55:30.029Z,26.18
2018-06-15T11:58:01.388Z,27.16
2018-06-15T12:00:31.884Z,26.48
2018-06-15T12:03:01.822Z,26.22
2018-06-15T12:05:31.633Z,26.56
2018-06-15T12:08:04.433Z,27.34
2018-06-15T12:10:35.853Z,27.80
2018-06-15T12:13:07.835Z,27.40
2018-06-15T12:15:40.788Z,27.63
2018-06-15T12:18:13.044Z,27.13
2018-06-15T12:20:44.410Z,27.50
2018-06-15T12:23:19.013Z,26.84
2018-06-15T12:25:50.462Z,26.84
2018-06-15T12:28:23.517Z,26.55
2018-06-15T12:30:55.247Z,26.87
2018-06-15T12:33:28.147Z,26.67
2018-06-15T12:36:01.264Z,27.06
2018-06-15T12:38:32.612Z,27.88
2018-06-15T12:41:05.402Z,28.05
2018-06-15T12:43:36.764Z,28.33
2018-06-15T12:46:09.631Z,27.11
2018-06-15T12:48:41.040Z,26.42
2018-06-15T12:51:15.470Z,26.49
2018-06-15T12:53:48.918Z,25.46
2018-06-15T12:56:20.409Z,26.55
2018-06-15T12:58:53.345Z,26.55
2018-06-15T13:01:26.555Z,25.92
2018-06-15T13:03:59.912Z,26.26
2018-06-15T13:06:31.325Z,26.54
2018-06-15T13:09:03.695Z,27.04
2018-06-15T13:11:39.134Z,26.69
2018-06-15T13:14:10.556Z,25.98
2018-06-15T13:16:41.901Z,25.71
2018-06-15T13:19:14.916Z,25.77
2018-06-15T13:21:48.087Z,26.58
2018-06-15T13:24:20.969Z,25.44
2018-06-15T13:26:53.847Z,25.30
2018-06-15T13:29:23.703Z,25.65
2018-06-15T13:31:56.853Z,25.55
2018-06-15T13:34:28.539Z,25.65
2018-06-15T13:36:58.661Z,26.15
2018-06-15T13:39:30.183Z,25.84
2018-06-15T13:42:00.219Z,26.08
2018-06-15T13:44:34.942Z,25.15
2018-06-15T13:47:06.725Z,25.55
2018-06-15T13:49:38.099Z,25.51
2018-06-15T13:52:11.036Z,25.96
2018-06-15T13:54:44.053Z,26.18
2018-06-15T13:57:13.944Z,26.65
2018-06-15T13:59:43.871Z,27.04
2018-06-15T14:02:17.113Z,26.73
2018-06-15T14:04:47.073Z,26.44
2018-06-15T14:07:18.483Z,26.79
2018-06-15T14:09:48.131Z,26.49
2018-06-15T14:12:22.742Z,26.74
2018-06-15T14:14:54.956Z,26.49
2018-06-15T14:17:26.337Z,26.00
2018-06-15T14:19:57.768Z,25.19
2018-06-15T14:22:31.057Z,25.06
2018-06-15T14:25:05.284Z,24.99
2018-06-15T14:27:36.676Z,25.00
2018-06-15T14:30:11.473Z,25.10
2018-06-15T14:32:42.935Z,24.90
2018-06-15T14:35:12.866Z,25.18
2018-06-15T14:37:45.684Z,25.50
2018-06-15T14:40:17.095Z,25.76
2018-06-15T14:42:48.414Z,25.79
2018-06-15T14:45:19.940Z,25.62
2018-06-15T14:47:51.380Z,25.52
2018-06-15T14:50:25.699Z,25.52
2018-06-15T14:52:57.157Z,25.94
2018-06-15T14:55:29.977Z,26.00
2018-06-15T14:58:02.901Z,26.24
2018-06-15T15:00:34.277Z,25.79
2018-06-15T15:03:06.823Z,25.91
2018-06-15T15:05:39.744Z,25.50
2018-06-15T15:08:10.223Z,25.94
2018-06-15T15:10:43.106Z,26.16
2018-06-15T15:13:16.402Z,25.98
2018-06-15T15:15:46.317Z,25.95
2018-06-15T15:18:16.180Z,25.75
2018-06-15T15:20:47.639Z,26.21
2018-06-15T15:23:19.032Z,26.17
2018-06-15T15:25:53.833Z,25.64
2018-06-15T15:28:25.161Z,25.74
2018-06-15T15:30:56.028Z,25.48
2018-06-15T15:33:30.448Z,24.99
2018-06-15T15:36:00.901Z,25.20
2018-06-15T15:38:34.132Z,25.26
2018-06-15T15:41:05.901Z,25.17
2018-06-15T15:43:38.804Z,25.10
2018-06-15T15:46:10.776Z,24.86
2018-06-15T15:48:43.721Z,25.11
2018-06-15T15:51:17.161Z,25.42
2018-06-15T15:53:47.002Z,25.47
2018-06-15T15:56:17.043Z,25.61
2018-06-15T15:58:50.280Z,25.77
2018-06-15T16:01:20.207Z,25.43
2018-06-15T16:03:51.688Z,25.49
2018-06-15T16:06:25.007Z,25.54
2018-06-15T16:08:54.981Z,25.56
2018-06-15T16:11:26.976Z,25.78
2018-06-15T16:13:59.004Z,26.04
2018-06-15T16:16:31.795Z,26.03
2018-06-15T16:19:03.329Z,26.18
2018-06-15T16:21:36.453Z,25.93
2018-06-15T16:24:06.358Z,25.89
2018-06-15T16:26:38.300Z,25.69
2018-06-15T16:29:11.145Z,25.66
2018-06-15T16:31:42.616Z,25.70
2018-06-15T16:34:15.453Z,25.73
2018-06-15T16:36:48.400Z,25.83
2018-06-15T16:39:19.848Z,26.16
2018-06-15T16:41:51.197Z,25.48
2018-06-15T16:44:23.980Z,25.76
2018-06-15T16:46:55.308Z,25.57
2018-06-15T16:49:26.725Z,25.56
2018-06-15T16:51:56.618Z,25.74
2018-06-15T16:54:26.540Z,25.18
2018-06-15T16:56:56.430Z,25.58
2018-06-15T16:59:29.278Z,25.66
2018-06-15T17:02:02.340Z,25.35
2018-06-15T17:04:35.214Z,25.34
2018-06-15T17:07:08.059Z,25.46
2018-06-15T17:09:37.900Z,25.67
2018-06-15T17:12:08.298Z,25.27
2018-06-15T17:14:42.534Z,25.11
2018-06-15T17:17:15.453Z,25.36
2018-06-15T17:19:48.297Z,25.15
2018-06-15T17:22:21.112Z,24.96
2018-06-15T17:24:54.198Z,24.97
2018-06-15T17:27:27.095Z,24.38
2018-06-15T17:29:58.604Z,24.51
2018-06-15T17:32:30.035Z,24.38
2018-06-15T17:35:03.079Z,24.34
2018-06-15T17:37:35.823Z,24.51
2018-06-15T17:40:07.490Z,24.31
2018-06-15T17:42:39.261Z,24.07
2018-06-15T17:45:12.312Z,24.07
2018-06-15T17:47:43.769Z,24.36
2018-06-15T17:50:15.322Z,24.42
2018-06-15T17:52:46.971Z,24.40
2018-06-15T17:55:17.514Z,24.37
2018-06-15T17:57:50.628Z,24.53
2018-06-15T18:00:22.440Z,24.58
2018-06-15T18:02:57.053Z,24.58
2018-06-15T18:05:28.016Z,24.61
2018-06-15T18:08:02.797Z,24.14
2018-06-15T18:10:35.874Z,24.18
2018-06-15T18:13:05.768Z,24.22
2018-06-15T18:15:37.320Z,24.40
2018-06-15T18:18:10.208Z,24.41
2018-06-15T18:20:44.671Z,24.40
2018-06-15T18:23:17.551Z,24.25
2018-06-15T18:25:51.911Z,23.87
2018-06-15T18:28:24.992Z,23.61
2018-06-15T18:30:58.646Z,23.20
2018-06-15T18:33:30.801Z,22.70
2018-06-15T18:36:03.765Z,22.30
2018-06-15T18:38:35.238Z,22.41
2018-06-15T18:41:10.035Z,22.20
2018-06-15T18:43:43.044Z,22.17
2018-06-15T18:46:16.074Z,22.15
2018-06-15T18:48:47.708Z,22.14
2018-06-15T18:51:20.650Z,22.09
2018-06-15T18:53:50.595Z,21.91
2018-06-15T18:56:23.653Z,21.81
2018-06-15T18:58:53.983Z,21.72
2018-06-15T19:01:25.541Z,21.57
2018-06-15T19:03:59.964Z,21.35
2018-06-15T19:06:34.297Z,20.99
2018-06-15T19:09:10.273Z,20.99
2018-06-15T19:11:42.402Z,20.87
2018-06-15T19:14:15.388Z,20.77
2018-06-15T19:16:47.595Z,20.87
2018-06-15T19:19:21.199Z,20.76
2018-06-15T19:21:54.483Z,20.78
2018-06-15T19:24:26.002Z,20.80
2018-06-15T19:26:57.701Z,20.65
2018-06-15T19:29:30.738Z,20.50
2018-06-15T19:32:02.229Z,20.35
2018-06-15T19:34:33.647Z,20.28
2018-06-15T19:37:05.094Z,20.20
2018-06-15T19:39:39.543Z,20.18
2018-06-15T19:42:11.692Z,20.13
2018-06-15T19:44:43.220Z,19.95
2018-06-15T19:47:16.310Z,19.99
2018-06-15T19:49:46.451Z,19.91
2018-06-15T19:52:18.607Z,19.81
2018-06-15T19:54:51.629Z,19.71
2018-06-15T19:57:23.342Z,19.80
2018-06-15T19:59:54.796Z,19.83
2018-06-15T20:02:26.693Z,19.78
2018-06-15T20:04:56.608Z,19.75
2018-06-15T20:07:28.076Z,19.60
2018-06-15T20:10:02.660Z,19.42
2018-06-15T20:12:34.275Z,19.39
2018-06-15T20:15:05.668Z,19.25
2018-06-15T20:17:39.111Z,19.23
2018-06-15T20:20:09.098Z,19.09
2018-06-15T20:22:42.700Z,19.17
2018-06-15T20:25:14.640Z,19.11
2018-06-15T20:27:49.179Z,18.80
2018-06-15T20:30:22.162Z,18.66
2018-06-15T20:32:55.233Z,18.73
2018-06-15T20:35:27.100Z,18.89
2018-06-15T20:37:58.670Z,18.93
2018-06-15T20:40:28.602Z,18.91
2018-06-15T20:42:58.674Z,18.79
2018-06-15T20:45:28.717Z,18.74
2018-06-15T20:48:03.302Z,18.70
2018-06-15T20:50:37.920Z,18.73
2018-06-15T20:53:07.919Z,18.74
2018-06-15T20:55:39.285Z,18.65
2018-06-15T20:58:12.376Z,18.81
2018-06-15T21:00:42.076Z,18.91
2018-06-15T21:03:13.485Z,18.89
2018-06-15T21:05:43.512Z,18.72
2018-06-15T21:08:16.472Z,18.70
2018-06-15T21:10:48.047Z,18.67
2018-06-15T21:13:21.022Z,18.79
2018-06-15T21:15:52.443Z,18.81
2018-06-15T21:18:25.395Z,18.84
2018-06-15T21:20:56.820Z,18.63
2018-06-15T21:23:31.585Z,18.63
2018-06-15T21:26:06.198Z,18.76
2018-06-15T21:28:41.110Z,18.91
2018-06-15T21:31:15.985Z,18.80
2018-06-15T21:33:47.553Z,18.48
2018-06-15T21:36:18.993Z,18.72
2018-06-15T21:38:50.497Z,18.89
2018-06-15T21:41:23.755Z,18.95
2018-06-15T21:43:56.877Z,18.90
2018-06-15T21:46:29.739Z,19.15
2018-06-15T21:49:04.151Z,19.25
2018-06-15T21:51:38.639Z,19.14
2018-06-15T21:54:10.242Z,19.10
2018-06-15T21:56:44.727Z,19.08
2018-06-15T21:59:17.748Z,19.06
2018-06-15T22:01:47.666Z,19.02
2018-06-15T22:04:21.155Z,18.93
2018-06-15T22:06:52.834Z,18.96
2018-06-15T22:09:24.397Z,18.92
2018-06-15T22:11:57.549Z,18.86
2018-06-15T22:14:31.469Z,18.87
2018-06-15T22:17:02.955Z,18.83
2018-06-15T22:19:36.069Z,18.83
2018-06-15T22:22:09.130Z,18.92
2018-06-15T22:24:43.493Z,19.00
2018-06-15T22:27:15.191Z,19.05
2018-06-15T22:29:46.643Z,19.08
2018-06-15T22:32:17.105Z,18.99
2018-06-15T22:34:50.485Z,19.06
2018-06-15T22:37:21.999Z,19.10
2018-06-15T22:39:55.070Z,18.97
2018-06-15T22:42:25.800Z,18.97
2018-06-15T22:45:00.234Z,18.89
2018-06-15T22:47:32.303Z,18.85
2018-06-15T22:50:05.255Z,18.74
2018-06-15T22:52:36.765Z,18.73
2018-06-15T22:55:08.391Z,18.76
2018-06-15T22:57:41.355Z,18.68
2018-06-15T23:00:11.715Z,18.72
2018-06-15T23:02:42.778Z,18.70
2018-06-15T23:05:14.415Z,18.79
2018-06-15T23:07:46.301Z,18.71
2018-06-15T23:10:17.827Z,18.81
2018-06-15T23:12:47.834Z,18.76
2018-06-15T23:15:21.646Z,18.76
2018-06-15T23:17:52.673Z,18.71
2018-06-15T23:20:23.678Z,18.67
2018-06-15T23:22:55.195Z,18.64
2018-06-15T23:25:28.557Z,18.49
2018-06-15T23:28:01.742Z,18.34
2018-06-15T23:30:33.330Z,18.24
2018-06-15T23:33:06.249Z,17.99
2018-06-15T23:35:38.683Z,17.98
2018-06-15T23:38:10.161Z,17.99
2018-06-15T23:40:43.112Z,18.06
2018-06-15T23:43:16.077Z,18.09
2018-06-15T23:45:48.143Z,18.09
2018-06-15T23:48:19.642Z,17.91
2018-06-15T23:50:52.569Z,17.96
2018-06-15T23:53:24.413Z,18.00
2018-06-15T23:55:58.772Z,18.00
2018-06-15T23:58:31.916Z,17.96
